Aérodrome :
LOGIN :

S'inscrire | Disclaimer

   EN    FR    IT 

 










Légende :    VFR   VFR Marginal   IFR   IFR Intensif   IFR Très Intensif
Visi : 
Plafond : 
>= 8 km
>= 3000ft
5 à 8 km
1000 à 3000 ft
1500m à 5 km
500 à 1000 ft
800 à 1500m
200 à 500 ft
< 800m
< 200 ft
Symboles :   Orages  Brouillard  Fortes neiges  Fortes précipitations  Vent > 20 kt
SIGMETs :   Divers  Orages  Givrage  Turbulence  Onde Orograph.  Cendres Volcan.







- Altitude de l'aérodrome : 464 ft
- Code IATA : EVX
- Voir les cartes d'approche


LFOE - Evreux

DERNIER METAR :
  • 122300Z AUTO 09011KT 5000 BR OVC008 01/M00 Q1017 TEMPO OVC004

METARs EXPIRÉS :
  • 122230Z AUTO 10009KT 5000 BR OVC008 01/M00 Q1018 BECMG OVC004
  • 122200Z AUTO 10009KT 5000 BR OVC008 01/00 Q1018 BECMG OVC004
  • 122130Z AUTO 09013KT 5000 BR OVC007 01/M00 Q1018 BECMG OVC004
  • 122100Z AUTO 09013KT 5000 BR OVC006 01/00 Q1018 BECMG OVC004
  • 122030Z AUTO 08009KT 4000 BR OVC004 01/00 Q1019 NOSIG

TAF AMD TAF LFOE
Valide du 12 à 22h jusqu'au 13 à 21h UTC


122220Z 1222/1321 09010KT 4000 BR OVC007
TEMPO 1222/1306 3000 BR OVC004
BECMG 1303/1305 09010G20KT
BECMG 1308/1310 9999 NSW BKN010
BECMG 1310/1312 SCT020
Pas de NOTAMs connus pour ce terrain.



MET'MAP, la Météo Aéronautique d'un coup d'oeil ! - Copyright ORBIFLY Décembre 2007 - Disclaimer

ORBIFLY MET'MAP TEAM :

Programmation & Développement : Alexandra Zaïnal
Conception & Développement : Baudouin d'Aumeries
Co-Programmation & Développement : Marc-Olivier Méhu
Soutien technique & logistique : Manuel Goepfert

Contact : metmap@orbifly.com




SOURCES & CREDITS :

   NOAA